Detall de PIREP

Printer-friendly versionPDF version

[2015/01/17 12:03:00]
Flight IATA:CT0001
Pilot Number:012
Company ICAO:CAT
Aircraft Type:AT72/F
PAX:68
Departing Airport: LEDA
Destination Airport: LEMH
Alternate Airport:LEPA
Online: VATSIM
Route:REBUL G23 BCN H70 SARGO
Flight Level:F190
No Slew and time accel
No pause
Crash detect
Detect pilot in Cockpit between each 30 and 45 minutes
12:03 Zero fuel Weight: 42842 Lbs, Fuel Weight: 4817 Lbs
12:03 VATSIM:LEDA 161700Z 25019KT 9999 FEW030 06/04 Q1011
12:03 VATSIM:LEMH 171130Z 36005KT 310V060 9999 FEW020 12/05 Q1021
12:05 Parking Brakes off
12:09 Take-off
12:09 Take off Weight: 47599 Lbs
12:09 Wind: 000º @ 001 Knots Heading: 311º
12:09 POS N41º 43´ 48´´ E000º 31´ 55´´
12:09 Gear Up: 134 Knots
12:09 Flaps:1 at 134 Knots
12:10 Flaps:0 at 161 Knots
12:23 TOC
12:23 Fuel Weight: 4276 Lb
12:24 Wind:280º@036 Knots Heading: 119º Ground Speed: 272 Knots Altitude 19143 ft
12:39 Wind:297º@025 Knots Heading: 119º Ground Speed: 306 Knots Altitude 19202 ft
12:47 TOD
12:47 Fuel Weight: 3590 Lb
12:54 Wind:278º@017 Knots Heading: 250º Ground Speed: 246 Knots Altitude 8569 ft
13:03 Flaps:1 at 198 Knots
13:03 Gear Down: 177 Knots
13:04 Flaps:2 at 134 Knots
13:06 TouchDown:Rate -141 ft/min Speed: 115 Knots
13:07 Flaps:0 at 59 Knots
13:07 VATSIM:LEMH 171230Z VRB03KT 9999 FEW020 12/04 Q1020
13:07 Land
13:07 Wind:330º@003 Knots
13:07 Heading: 006º
13:07 Flight Duration: 00:58
13:07 Landing Weight: 46092 Lbs
13:07 POS N39º 51´ 49´´ E004º 13´ 07´´
13:08 Parking brakes on
13:08 Block to Block Duration: 01:03
13:08 Final Fuel: 3242 Lbls
13:08 Spent Fuel: 1574 Lbls
13:08 Flight Length: 253 NM
13:08 TOD Land Length: 78 NM

Exportar CSV

Powered by Drupal - Modified by Danger4k